createdAt,value
2023-03-24T00:01:58.588Z,4.30
2023-03-24T00:04:25.373Z,4.03
2023-03-24T00:06:52.598Z,4.07
2023-03-24T00:09:19.327Z,3.90
2023-03-24T00:11:46.193Z,4.47
2023-03-24T00:14:12.885Z,4.83
2023-03-24T00:16:42.683Z,4.10
2023-03-24T00:19:10.763Z,4.50
2023-03-24T00:21:37.600Z,4.53
2023-03-24T00:24:05.033Z,4.40
2023-03-24T00:26:32.482Z,5.30
2023-03-24T00:28:59.140Z,4.87
2023-03-24T00:31:26.220Z,4.77
2023-03-24T00:33:53.990Z,4.83
2023-03-24T00:36:22.117Z,4.50
2023-03-24T00:38:50.212Z,5.33
2023-03-24T00:41:20.089Z,4.47
2023-03-24T00:43:47.862Z,4.40
2023-03-24T00:46:27.387Z,4.43
2023-03-24T00:49:02.771Z,3.87
2023-03-24T00:51:36.475Z,3.97
2023-03-24T00:54:03.496Z,3.43
2023-03-24T00:56:31.583Z,4.00
2023-03-24T00:58:58.335Z,4.10
2023-03-24T01:01:25.846Z,4.40
2023-03-24T01:03:52.687Z,3.83
2023-03-24T01:06:22.321Z,4.20
2023-03-24T01:08:49.522Z,4.50
2023-03-24T01:11:16.688Z,3.93
2023-03-24T01:13:43.468Z,4.50
2023-03-24T01:16:10.273Z,4.00
2023-03-24T01:18:40.816Z,4.43
2023-03-24T01:21:08.418Z,4.17
2023-03-24T01:23:35.142Z,4.83
2023-03-24T01:26:04.412Z,5.07
2023-03-24T01:28:31.558Z,5.37
2023-03-24T01:30:58.459Z,4.67
2023-03-24T01:33:25.182Z,5.30
2023-03-24T01:35:51.938Z,6.00
2023-03-24T01:38:18.624Z,5.70
2023-03-24T01:40:46.562Z,5.57
2023-03-24T02:18:27.812Z,8.17
2023-03-24T02:21:11.077Z,8.70
2023-03-24T02:23:54.283Z,8.90
2023-03-24T02:26:26.537Z,10.07
2023-03-24T02:29:05.452Z,9.67
2023-03-24T02:31:34.398Z,9.83
2023-03-24T02:34:13.264Z,10.57
2023-03-24T02:36:55.496Z,10.60
2023-03-24T02:39:31.813Z,10.97
2023-03-24T02:42:10.996Z,11.13
2023-03-24T02:44:44.670Z,11.37
2023-03-24T02:47:11.638Z,12.37
2023-03-24T02:50:04.712Z,11.60
2023-03-24T02:52:31.512Z,11.03
2023-03-24T02:55:00.847Z,11.93
2023-03-24T02:57:39.996Z,12.20
2023-03-24T03:00:43.316Z,11.73
2023-03-24T03:03:34.707Z,10.67
2023-03-24T03:06:05.237Z,11.57
2023-03-24T03:08:34.025Z,11.50
2023-03-24T03:11:01.477Z,11.40
2023-03-24T03:13:28.272Z,11.70
2023-03-24T03:15:56.089Z,10.90
2023-03-24T03:18:25.640Z,11.50
2023-03-24T03:20:53.217Z,11.67
2023-03-24T03:23:23.506Z,11.43
2023-03-24T03:25:51.427Z,11.97
2023-03-24T03:28:23.815Z,11.63
2023-03-24T03:30:52.993Z,12.83
2023-03-24T03:33:31.194Z,12.93
2023-03-24T03:36:09.233Z,11.87
2023-03-24T03:39:06.742Z,14.27
2023-03-24T03:41:34.465Z,13.53
2023-03-24T03:44:01.448Z,14.10
2023-03-24T03:46:28.547Z,15.77
2023-03-24T03:48:56.426Z,16.03
2023-03-24T03:51:23.291Z,16.73
2023-03-24T03:53:55.633Z,17.33
2023-03-24T03:56:23.806Z,14.60
2023-03-24T03:59:42.906Z,17.10
2023-03-24T04:02:28.331Z,16.33
2023-03-24T04:05:14.178Z,16.87
2023-03-24T04:07:58.241Z,17.27
2023-03-24T04:10:47.064Z,16.77
2023-03-24T04:13:39.716Z,15.50
2023-03-24T04:16:18.332Z,14.97
2023-03-24T04:19:28.192Z,15.50
2023-03-24T04:21:58.472Z,15.13
2023-03-24T04:24:29.231Z,15.37
2023-03-24T04:27:06.637Z,14.63
2023-03-24T04:29:34.681Z,14.50
2023-03-24T04:32:02.999Z,14.17
2023-03-24T04:34:33.776Z,14.00
2023-03-24T04:37:21.816Z,13.13
2023-03-24T04:40:01.875Z,13.20
2023-03-24T04:42:31.143Z,13.53
2023-03-24T04:44:57.841Z,11.90
2023-03-24T04:47:57.579Z,12.30
2023-03-24T04:50:37.145Z,12.90
2023-03-24T04:53:08.386Z,11.40
2023-03-24T04:55:45.536Z,12.37
2023-03-24T04:58:12.568Z,11.40
2023-03-24T05:00:41.635Z,11.33
2023-03-24T05:03:08.589Z,11.17
2023-03-24T05:05:35.337Z,11.00
2023-03-24T05:08:02.149Z,11.23
2023-03-24T05:10:28.777Z,11.23
2023-03-24T05:12:58.313Z,11.27
2023-03-24T05:15:31.032Z,11.73
2023-03-24T05:18:20.616Z,10.50
2023-03-24T05:20:47.403Z,10.93
2023-03-24T05:23:19.662Z,11.80
2023-03-24T05:25:48.097Z,10.77
2023-03-24T05:28:16.640Z,10.10
2023-03-24T05:30:44.064Z,11.00
2023-03-24T05:33:30.943Z,11.10
2023-03-24T05:35:58.963Z,10.73
2023-03-24T05:38:25.905Z,11.37
2023-03-24T05:40:58.387Z,11.17
2023-03-24T05:43:29.348Z,11.50
2023-03-24T05:46:07.085Z,11.67
2023-03-24T05:48:34.660Z,11.90
2023-03-24T05:51:10.704Z,10.43
2023-03-24T05:53:38.086Z,10.23
2023-03-24T05:56:13.331Z,10.80
2023-03-24T05:59:02.798Z,10.33
2023-03-24T06:02:00.833Z,11.27
2023-03-24T06:04:57.800Z,10.73
2023-03-24T06:07:26.980Z,10.77
2023-03-24T06:09:58.265Z,10.97
2023-03-24T06:12:26.535Z,10.97
2023-03-24T06:15:01.858Z,9.60
2023-03-24T06:17:30.453Z,10.00
2023-03-24T06:20:03.005Z,9.70
2023-03-24T06:23:01.063Z,9.17
2023-03-24T06:25:35.588Z,9.87
2023-03-24T06:28:30.542Z,8.17
2023-03-24T06:31:00.792Z,8.70
2023-03-24T06:33:34.774Z,8.30
2023-03-24T06:36:03.002Z,8.10
2023-03-24T06:38:31.527Z,8.60
2023-03-24T06:41:05.236Z,8.47
2023-03-24T06:43:32.136Z,8.27
2023-03-24T06:45:59.302Z,8.60
2023-03-24T06:48:27.425Z,8.33
2023-03-24T06:51:01.723Z,7.67
2023-03-24T06:53:28.609Z,7.40
2023-03-24T06:55:55.601Z,7.73
2023-03-24T06:58:25.405Z,7.20
2023-03-24T07:01:05.488Z,6.27
2023-03-24T07:03:34.996Z,6.87
2023-03-24T07:06:18.543Z,6.50
2023-03-24T07:08:50.465Z,6.37
2023-03-24T07:11:18.116Z,5.53
2023-03-24T07:13:50.800Z,5.43
2023-03-24T07:16:18.016Z,5.50
2023-03-24T07:18:47.280Z,5.63
2023-03-24T07:21:15.951Z,6.37
2023-03-24T07:23:43.583Z,5.97
2023-03-24T07:26:15.574Z,5.00
2023-03-24T07:28:45.084Z,5.00
2023-03-24T07:31:13.607Z,5.07
2023-03-24T07:33:42.233Z,4.93
2023-03-24T07:36:09.138Z,5.13
2023-03-24T07:38:38.519Z,4.70
2023-03-24T07:41:09.752Z,5.13
2023-03-24T07:43:41.361Z,4.43
2023-03-24T07:46:19.758Z,3.73
2023-03-24T07:48:47.393Z,3.90
2023-03-24T07:51:18.178Z,3.77
2023-03-24T07:53:50.547Z,3.63
2023-03-24T07:56:28.194Z,4.23
2023-03-24T07:58:57.951Z,4.57
2023-03-24T08:01:31.992Z,4.23
2023-03-24T08:04:03.614Z,4.70
2023-03-24T08:06:49.236Z,4.23
2023-03-24T08:09:16.717Z,3.90
2023-03-24T08:11:43.496Z,4.43
2023-03-24T08:14:10.396Z,4.57
2023-03-24T08:16:39.192Z,4.40
2023-03-24T08:19:07.530Z,4.87
2023-03-24T08:21:34.182Z,5.50
2023-03-24T08:24:01.006Z,4.90
2023-03-24T08:26:35.178Z,6.20
2023-03-24T08:29:02.140Z,6.90
2023-03-24T08:31:34.918Z,6.70
2023-03-24T08:34:01.668Z,6.40
2023-03-24T08:36:28.371Z,7.13
2023-03-24T08:38:55.763Z,7.00
2023-03-24T08:41:22.892Z,7.93
2023-03-24T08:43:49.764Z,6.77
2023-03-24T08:46:16.876Z,6.97
2023-03-24T08:48:44.019Z,7.30
2023-03-24T08:51:14.180Z,7.63
2023-03-24T08:53:41.629Z,7.33
2023-03-24T08:56:09.225Z,5.97
2023-03-24T08:58:36.798Z,7.50
2023-03-24T09:01:04.054Z,7.70
2023-03-24T09:03:32.892Z,8.30
2023-03-24T09:05:59.960Z,7.23
2023-03-24T09:08:27.468Z,8.20
2023-03-24T09:10:55.081Z,6.87
2023-03-24T09:13:22.379Z,7.70
2023-03-24T09:15:49.834Z,8.53
2023-03-24T09:18:17.360Z,5.73
2023-03-24T09:20:44.415Z,7.30
2023-03-24T09:23:11.221Z,7.83
2023-03-24T09:25:37.944Z,8.77
2023-03-24T09:28:04.878Z,8.67
2023-03-24T09:30:33.312Z,7.47
2023-03-24T09:33:01.469Z,7.70
2023-03-24T09:35:28.611Z,7.70
2023-03-24T09:37:55.840Z,7.40
2023-03-24T09:40:25.408Z,6.60
2023-03-24T09:43:01.810Z,7.60
2023-03-24T09:45:29.741Z,6.23
2023-03-24T09:47:57.935Z,6.13
2023-03-24T09:50:25.908Z,6.50
2023-03-24T09:52:57.297Z,5.87
2023-03-24T09:55:25.161Z,6.30
2023-03-24T09:57:52.055Z,6.57
2023-03-24T10:00:20.222Z,6.00
2023-03-24T10:02:49.057Z,6.17
2023-03-24T10:05:19.212Z,7.00
2023-03-24T10:07:47.889Z,6.53
2023-03-24T10:10:27.587Z,5.70
2023-03-24T10:12:54.570Z,6.47
2023-03-24T10:15:37.715Z,6.60
2023-03-24T10:18:24.232Z,6.97
2023-03-24T10:20:52.337Z,4.03
2023-03-24T10:23:33.852Z,5.87
2023-03-24T10:26:06.938Z,7.67
2023-03-24T10:28:33.859Z,6.03
2023-03-24T10:31:01.646Z,9.23
2023-03-24T10:33:28.802Z,8.33
2023-03-24T10:35:58.582Z,7.10
2023-03-24T10:38:25.682Z,6.40
2023-03-24T10:40:52.344Z,9.40
2023-03-24T10:43:19.370Z,8.50
2023-03-24T10:45:55.895Z,6.80
2023-03-24T10:48:41.838Z,7.37
2023-03-24T10:51:16.528Z,7.93
2023-03-24T10:53:47.882Z,6.87
2023-03-24T10:56:18.894Z,7.37
2023-03-24T10:58:46.076Z,6.27
2023-03-24T11:01:25.160Z,7.47
2023-03-24T11:03:59.128Z,4.40
2023-03-24T11:06:26.243Z,6.83
2023-03-24T11:09:10.106Z,6.13
2023-03-24T11:11:37.080Z,5.97
2023-03-24T11:14:04.097Z,5.77
2023-03-24T11:16:40.357Z,5.77
2023-03-24T11:19:07.817Z,4.67
2023-03-24T11:21:37.684Z,6.43
2023-03-24T11:24:09.779Z,6.50
2023-03-24T11:26:37.179Z,6.00
2023-03-24T11:29:07.633Z,5.77
2023-03-24T11:31:38.318Z,5.07
2023-03-24T11:34:11.736Z,4.77
2023-03-24T11:36:46.288Z,5.60
2023-03-24T11:39:17.586Z,4.30
2023-03-24T11:41:51.784Z,4.77
2023-03-24T11:44:25.238Z,4.47
2023-03-24T11:47:16.557Z,4.93
2023-03-24T11:49:44.384Z,3.83
2023-03-24T11:52:22.665Z,4.70
2023-03-24T11:54:49.431Z,4.47
2023-03-24T11:57:17.704Z,3.50
2023-03-24T12:00:10.950Z,4.13
2023-03-24T12:02:46.215Z,3.10
2023-03-24T12:05:16.387Z,3.03
2023-03-24T12:07:49.714Z,3.80
2023-03-24T12:10:16.497Z,4.30
2023-03-24T12:12:47.851Z,3.23
2023-03-24T12:15:28.019Z,3.43
2023-03-24T12:18:00.773Z,3.10
2023-03-24T12:20:30.668Z,3.30
2023-03-24T12:22:59.588Z,3.23
2023-03-24T12:25:38.669Z,3.90
2023-03-24T12:28:06.308Z,3.80
2023-03-24T12:30:45.303Z,3.80
2023-03-24T12:33:23.692Z,3.10
2023-03-24T12:36:11.545Z,3.67
2023-03-24T12:38:52.858Z,3.90
2023-03-24T12:41:25.026Z,4.20
2023-03-24T12:44:08.783Z,3.73
2023-03-24T12:46:48.814Z,3.43
2023-03-24T12:49:34.827Z,4.37
2023-03-24T12:52:07.515Z,3.93
2023-03-24T12:55:03.184Z,3.10
2023-03-24T12:57:30.481Z,4.17
2023-03-24T12:59:58.217Z,3.97
2023-03-24T13:02:27.727Z,3.80
2023-03-24T13:04:55.282Z,3.77
2023-03-24T13:07:25.929Z,4.37
2023-03-24T13:09:59.554Z,3.50
2023-03-24T13:12:33.360Z,3.07
2023-03-24T13:15:04.016Z,3.03
2023-03-24T13:17:32.136Z,2.77
2023-03-24T13:19:58.772Z,3.80
2023-03-24T13:22:25.847Z,4.07
2023-03-24T13:24:52.507Z,4.60
2023-03-24T13:27:22.377Z,4.23
2023-03-24T13:30:03.609Z,5.37
2023-03-24T13:32:30.508Z,4.23
2023-03-24T13:35:00.462Z,4.63
2023-03-24T13:37:35.778Z,4.63
2023-03-24T13:40:06.873Z,6.67
2023-03-24T13:42:35.111Z,6.30
2023-03-24T13:45:06.506Z,4.80
2023-03-24T13:47:52.197Z,4.33
2023-03-24T13:50:19.089Z,4.37
2023-03-24T13:52:49.250Z,4.90
2023-03-24T13:55:16.203Z,4.40
2023-03-24T13:57:43.343Z,4.37
2023-03-24T14:00:18.019Z,3.87
2023-03-24T14:02:47.868Z,3.10
2023-03-24T14:05:26.783Z,3.67
2023-03-24T14:08:13.994Z,4.40
2023-03-24T14:10:44.835Z,4.30
2023-03-24T14:13:11.765Z,4.20
2023-03-24T14:15:57.151Z,3.60
2023-03-24T14:18:24.528Z,3.33
2023-03-24T14:20:57.741Z,2.90
2023-03-24T14:23:33.944Z,2.53
2023-03-24T14:26:00.902Z,2.37
2023-03-24T14:28:46.831Z,3.03
2023-03-24T14:31:16.357Z,3.50
2023-03-24T14:33:44.418Z,4.47
2023-03-24T14:36:17.316Z,3.73
2023-03-24T14:38:44.253Z,4.20
2023-03-24T14:41:17.377Z,3.20
2023-03-24T14:43:44.384Z,3.63
2023-03-24T14:46:20.706Z,4.43
2023-03-24T14:49:06.377Z,3.57
2023-03-24T14:51:39.376Z,3.93
2023-03-24T14:54:12.020Z,3.67
2023-03-24T14:56:39.968Z,3.77
2023-03-24T14:59:25.774Z,3.33
2023-03-24T15:01:54.201Z,2.80
2023-03-24T15:04:21.857Z,3.30
2023-03-24T15:06:52.113Z,2.60
2023-03-24T15:09:18.872Z,2.80
2023-03-24T15:11:46.486Z,3.03
2023-03-24T15:14:31.283Z,2.60
2023-03-24T15:17:04.470Z,3.00
2023-03-24T15:19:31.477Z,3.00
2023-03-24T15:21:58.291Z,2.30
2023-03-24T15:24:29.273Z,3.13
2023-03-24T15:27:08.798Z,3.23
2023-03-24T15:29:41.190Z,3.50
2023-03-24T15:32:09.822Z,2.93
2023-03-24T15:34:37.350Z,3.67
2023-03-24T15:37:05.522Z,3.60
2023-03-24T15:39:37.092Z,5.00
2023-03-24T15:42:07.527Z,1.50
2023-03-24T15:44:37.831Z,1.30
2023-03-24T15:47:04.863Z,1.73
2023-03-24T15:49:32.296Z,1.83
2023-03-24T15:52:00.488Z,2.10
2023-03-24T15:54:29.182Z,2.33
2023-03-24T15:57:15.309Z,2.23
2023-03-24T15:59:46.949Z,3.10
2023-03-24T16:02:17.957Z,2.50
2023-03-24T16:04:44.955Z,2.20
2023-03-24T16:07:24.101Z,2.40
2023-03-24T16:09:55.710Z,2.90
2023-03-24T16:12:23.316Z,3.07
2023-03-24T16:14:50.171Z,2.50
2023-03-24T16:17:17.431Z,2.57
2023-03-24T16:19:44.344Z,2.27
2023-03-24T16:22:11.621Z,2.90
2023-03-24T16:24:38.383Z,2.30
2023-03-24T16:27:05.322Z,2.50
2023-03-24T16:29:32.432Z,2.57
2023-03-24T16:32:00.939Z,2.13
2023-03-24T16:34:27.846Z,2.90
2023-03-24T16:36:54.865Z,2.30
2023-03-24T16:39:22.548Z,2.80
2023-03-24T16:41:49.748Z,2.70
2023-03-24T16:44:17.687Z,2.80
2023-03-24T16:46:46.605Z,2.97
2023-03-24T16:49:15.030Z,2.93
2023-03-24T16:51:42.092Z,4.10
2023-03-24T16:54:09.387Z,4.27
2023-03-24T16:56:36.481Z,4.03
2023-03-24T16:59:03.365Z,3.80
2023-03-24T17:01:33.925Z,4.77
2023-03-24T17:04:01.858Z,4.70
2023-03-24T17:06:30.443Z,3.97
2023-03-24T17:08:59.872Z,3.33
2023-03-24T17:11:30.576Z,3.70
2023-03-24T17:14:03.792Z,4.07
2023-03-24T17:16:32.774Z,3.50
2023-03-24T17:19:03.007Z,3.70
2023-03-24T17:21:29.922Z,3.80
2023-03-24T17:24:01.305Z,3.47
2023-03-24T17:26:29.221Z,3.37
2023-03-24T17:28:57.281Z,3.40
2023-03-24T17:31:24.413Z,3.67
2023-03-24T17:33:51.420Z,3.30
2023-03-24T17:36:18.341Z,3.93
2023-03-24T17:38:48.201Z,3.97
2023-03-24T17:41:15.000Z,3.40
2023-03-24T17:43:41.736Z,4.50
2023-03-24T17:46:09.056Z,3.73
2023-03-24T17:48:37.319Z,3.60
2023-03-24T17:51:04.806Z,4.57
2023-03-24T17:53:33.820Z,7.37
2023-03-24T17:56:07.755Z,6.10
2023-03-24T17:58:34.836Z,8.80
2023-03-24T18:01:08.492Z,10.17
2023-03-24T18:03:38.996Z,9.13
2023-03-24T18:06:07.700Z,11.10
2023-03-24T18:08:36.164Z,7.57
2023-03-24T18:11:10.329Z,9.07
2023-03-24T18:13:37.350Z,6.03
2023-03-24T18:16:19.974Z,6.20
2023-03-24T18:18:48.095Z,6.87
2023-03-24T18:21:14.989Z,6.40
2023-03-24T18:23:43.385Z,7.33
2023-03-24T18:26:10.333Z,6.17
2023-03-24T18:28:38.026Z,7.27
2023-03-24T18:31:09.093Z,7.30
2023-03-24T18:33:36.556Z,6.70
2023-03-24T18:36:05.624Z,7.33
2023-03-24T18:38:32.587Z,6.27
2023-03-24T18:41:05.058Z,6.93
2023-03-24T18:43:34.620Z,5.90
2023-03-24T18:46:01.751Z,6.70
2023-03-24T18:48:28.688Z,8.67
2023-03-24T18:50:55.651Z,7.47
2023-03-24T18:53:22.826Z,6.40
2023-03-24T18:55:50.498Z,6.93
2023-03-24T18:58:17.600Z,6.90
2023-03-24T19:00:48.259Z,6.47
2023-03-24T19:03:16.628Z,6.33
2023-03-24T19:05:43.396Z,6.27
2023-03-24T19:08:15.214Z,6.53
2023-03-24T19:10:43.201Z,5.97
2023-03-24T19:13:11.068Z,5.63
2023-03-24T19:15:38.391Z,6.20
2023-03-24T19:18:05.561Z,4.90
2023-03-24T19:20:37.977Z,5.50
2023-03-24T19:23:06.080Z,5.90
2023-03-24T19:25:34.087Z,5.83
2023-03-24T19:28:01.280Z,6.00
2023-03-24T19:30:28.245Z,7.27
2023-03-24T19:32:58.237Z,6.30
2023-03-24T19:35:27.928Z,5.87
2023-03-24T19:37:54.781Z,6.10
2023-03-24T19:40:23.320Z,5.67
2023-03-24T19:42:50.447Z,6.00
2023-03-24T19:45:19.746Z,6.30
2023-03-24T19:47:47.400Z,6.30
2023-03-24T19:50:14.918Z,6.20
2023-03-24T19:52:46.271Z,6.00
2023-03-24T19:55:13.531Z,6.60
2023-03-24T19:57:40.485Z,4.90
2023-03-24T20:00:10.375Z,5.50
2023-03-24T20:02:37.534Z,5.87
2023-03-24T20:05:04.877Z,5.00
2023-03-24T20:07:31.631Z,5.83
2023-03-24T20:09:58.689Z,6.30
2023-03-24T20:12:29.043Z,6.10
2023-03-24T20:14:58.607Z,5.13
2023-03-24T20:17:30.005Z,5.40
2023-03-24T20:19:59.121Z,5.80
2023-03-24T20:22:26.155Z,4.80
2023-03-24T20:24:52.994Z,4.73
2023-03-24T20:27:20.224Z,5.20
2023-03-24T20:29:46.970Z,5.47
2023-03-24T20:32:14.835Z,5.83
2023-03-24T20:34:44.568Z,4.83
2023-03-24T20:37:11.428Z,5.53
2023-03-24T20:39:40.441Z,5.83
2023-03-24T20:42:08.229Z,5.30
2023-03-24T20:44:35.193Z,5.53
2023-03-24T20:47:03.372Z,6.40
2023-03-24T20:49:33.240Z,5.43
2023-03-24T20:52:00.102Z,5.70
2023-03-24T20:54:26.735Z,5.93
2023-03-24T20:56:56.528Z,5.27
2023-03-24T20:59:23.325Z,5.60
2023-03-24T21:01:50.328Z,4.97
2023-03-24T21:04:17.231Z,5.60
2023-03-24T21:06:44.093Z,6.50
2023-03-24T21:09:10.957Z,6.00
2023-03-24T21:11:37.785Z,5.40
2023-03-24T21:14:04.736Z,6.27
2023-03-24T21:16:33.876Z,5.57
2023-03-24T21:19:01.965Z,6.30
2023-03-24T21:21:28.892Z,6.50
2023-03-24T21:23:57.642Z,7.40
2023-03-24T21:26:25.400Z,6.73
2023-03-24T21:28:53.093Z,7.50
2023-03-24T21:31:21.726Z,7.23
2023-03-24T21:33:48.798Z,7.20
2023-03-24T21:36:15.778Z,8.17
2023-03-24T21:38:42.606Z,7.50
2023-03-24T21:41:09.536Z,8.93
2023-03-24T21:43:36.366Z,7.90
2023-03-24T21:46:04.653Z,7.57
2023-03-24T21:48:33.032Z,7.13
2023-03-24T21:51:00.372Z,6.87
2023-03-24T21:53:27.219Z,6.83
2023-03-24T21:56:05.043Z,7.37
2023-03-24T21:58:32.109Z,7.20
2023-03-24T22:00:59.305Z,6.83
2023-03-24T22:03:26.552Z,7.13
2023-03-24T22:05:56.600Z,6.67
2023-03-24T22:08:26.911Z,7.37
2023-03-24T22:11:00.641Z,7.47
2023-03-24T22:13:30.232Z,7.30
2023-03-24T22:15:57.729Z,8.30
2023-03-24T22:18:24.938Z,6.93
2023-03-24T22:21:12.689Z,7.67
2023-03-24T22:23:40.475Z,9.40
2023-03-24T22:26:08.059Z,7.77
2023-03-24T22:28:34.907Z,7.77
2023-03-24T22:31:06.212Z,7.50
2023-03-24T22:33:32.913Z,8.30
2023-03-24T22:35:59.861Z,8.60
2023-03-24T22:38:55.149Z,9.50
2023-03-24T22:41:21.938Z,9.00
2023-03-24T22:43:49.281Z,8.97
2023-03-24T22:46:16.684Z,8.43
2023-03-24T22:48:43.436Z,9.17
2023-03-24T22:51:16.978Z,8.97
2023-03-24T22:53:43.708Z,8.67
2023-03-24T22:56:10.475Z,8.93
2023-03-24T22:58:37.571Z,8.83
2023-03-24T23:01:06.183Z,8.37
2023-03-24T23:03:33.219Z,8.60
2023-03-24T23:06:01.905Z,8.40
2023-03-24T23:08:30.240Z,8.13
2023-03-24T23:10:58.446Z,9.10
2023-03-24T23:13:30.750Z,8.50
2023-03-24T23:15:57.691Z,8.07
2023-03-24T23:18:24.358Z,8.00
2023-03-24T23:20:51.107Z,7.53
2023-03-24T23:23:17.738Z,7.93
2023-03-24T23:25:44.816Z,7.27
2023-03-24T23:28:11.828Z,6.97
2023-03-24T23:30:38.746Z,6.83
2023-03-24T23:33:05.476Z,6.57
2023-03-24T23:35:33.250Z,6.30
2023-03-24T23:37:59.899Z,7.13
2023-03-24T23:40:26.726Z,6.83
2023-03-24T23:42:53.455Z,6.30
2023-03-24T23:45:20.427Z,5.93
2023-03-24T23:47:49.748Z,5.50
2023-03-24T23:50:17.303Z,5.73
2023-03-24T23:52:44.112Z,6.10
2023-03-24T23:55:13.839Z,5.90
2023-03-24T23:57:41.448Z,5.57
